sensor_id;sensor_type;location;lat;lon;timestamp;pressure;altitude;pressure_sealevel;temperature;humidity
6506;BME280;3286;49.858;8.768;2023-04-28T00:02:13;99026.25;;;13.00;49.88
6506;BME280;3286;49.858;8.768;2023-04-28T00:04:40;99026.88;;;13.02;49.44
6506;BME280;3286;49.858;8.768;2023-04-28T00:07:06;99031.91;;;12.89;49.41
6506;BME280;3286;49.858;8.768;2023-04-28T00:09:33;99035.34;;;13.06;48.85
6506;BME280;3286;49.858;8.768;2023-04-28T00:12:00;99027.53;;;13.04;49.52
6506;BME280;3286;49.858;8.768;2023-04-28T00:14:28;99024.97;;;12.71;50.20
6506;BME280;3286;49.858;8.768;2023-04-28T00:16:54;99025.75;;;12.88;49.61
6506;BME280;3286;49.858;8.768;2023-04-28T00:19:23;99018.31;;;13.32;48.73
6506;BME280;3286;49.858;8.768;2023-04-28T00:21:50;99009.34;;;13.01;49.65
6506;BME280;3286;49.858;8.768;2023-04-28T00:24:16;99014.50;;;12.86;49.53
6506;BME280;3286;49.858;8.768;2023-04-28T00:26:43;99006.94;;;12.67;49.62
6506;BME280;3286;49.858;8.768;2023-04-28T00:29:09;99001.53;;;13.00;49.13
6506;BME280;3286;49.858;8.768;2023-04-28T00:31:37;98999.19;;;13.05;49.11
6506;BME280;3286;49.858;8.768;2023-04-28T00:34:04;98999.69;;;13.09;48.95
6506;BME280;3286;49.858;8.768;2023-04-28T00:36:30;99002.03;;;13.03;49.59
6506;BME280;3286;49.858;8.768;2023-04-28T00:38:57;98982.19;;;12.83;50.54
6506;BME280;3286;49.858;8.768;2023-04-28T00:41:24;98986.50;;;12.92;50.66
6506;BME280;3286;49.858;8.768;2023-04-28T00:43:51;98982.16;;;12.99;50.43
6506;BME280;3286;49.858;8.768;2023-04-28T00:46:20;98969.34;;;13.11;49.88
6506;BME280;3286;49.858;8.768;2023-04-28T00:48:49;98968.50;;;13.11;50.22
6506;BME280;3286;49.858;8.768;2023-04-28T00:51:16;98963.06;;;13.12;49.88
6506;BME280;3286;49.858;8.768;2023-04-28T00:53:44;98958.09;;;13.01;50.25
6506;BME280;3286;49.858;8.768;2023-04-28T00:56:11;98954.84;;;12.90;50.25
6506;BME280;3286;49.858;8.768;2023-04-28T00:58:38;98956.84;;;12.88;50.04
6506;BME280;3286;49.858;8.768;2023-04-28T01:01:05;98960.69;;;12.86;50.25
6506;BME280;3286;49.858;8.768;2023-04-28T01:03:33;98948.59;;;12.75;51.31
6506;BME280;3286;49.858;8.768;2023-04-28T01:06:04;98956.84;;;12.88;50.76
6506;BME280;3286;49.858;8.768;2023-04-28T01:08:32;98944.75;;;13.26;50.07
6506;BME280;3286;49.858;8.768;2023-04-28T01:10:59;98945.53;;;12.95;50.99
6506;BME280;3286;49.858;8.768;2023-04-28T01:13:26;98935.91;;;13.02;50.98
6506;BME280;3286;49.858;8.768;2023-04-28T01:15:54;98933.47;;;12.92;51.45
6506;BME280;3286;49.858;8.768;2023-04-28T01:18:20;98930.25;;;13.05;51.01
6506;BME280;3286;49.858;8.768;2023-04-28T01:20:47;98924.69;;;12.92;51.35
6506;BME280;3286;49.858;8.768;2023-04-28T01:23:16;98924.09;;;12.73;51.50
6506;BME280;3286;49.858;8.768;2023-04-28T01:25:44;98919.03;;;12.55;52.31
6506;BME280;3286;49.858;8.768;2023-04-28T01:28:10;98911.59;;;12.42;52.95
6506;BME280;3286;49.858;8.768;2023-04-28T01:30:37;98907.41;;;12.96;51.53
6506;BME280;3286;49.858;8.768;2023-04-28T01:33:04;98908.81;;;12.83;51.87
6506;BME280;3286;49.858;8.768;2023-04-28T01:35:30;98908.75;;;13.23;50.74
6506;BME280;3286;49.858;8.768;2023-04-28T01:37:57;98911.81;;;13.12;51.06
6506;BME280;3286;49.858;8.768;2023-04-28T01:40:24;98913.97;;;13.16;51.31
6506;BME280;3286;49.858;8.768;2023-04-28T01:42:52;98917.47;;;12.77;52.80
6506;BME280;3286;49.858;8.768;2023-04-28T01:45:18;98905.13;;;13.24;50.51
6506;BME280;3286;49.858;8.768;2023-04-28T01:47:45;98911.72;;;12.97;51.73
6506;BME280;3286;49.858;8.768;2023-04-28T01:50:11;98907.25;;;12.66;52.84
6506;BME280;3286;49.858;8.768;2023-04-28T01:52:38;98906.66;;;12.87;52.89
6506;BME280;3286;49.858;8.768;2023-04-28T01:55:05;98907.19;;;12.74;53.44
6506;BME280;3286;49.858;8.768;2023-04-28T01:57:32;98896.72;;;12.81;52.83
6506;BME280;3286;49.858;8.768;2023-04-28T02:00:01;98892.25;;;13.13;52.16
6506;BME280;3286;49.858;8.768;2023-04-28T02:02:29;98898.66;;;12.95;52.76
6506;BME280;3286;49.858;8.768;2023-04-28T02:04:56;98897.38;;;12.83;52.75
6506;BME280;3286;49.858;8.768;2023-04-28T02:07:23;98902.13;;;12.96;52.42
6506;BME280;3286;49.858;8.768;2023-04-28T02:09:50;98896.28;;;12.60;52.97
6506;BME280;3286;49.858;8.768;2023-04-28T02:12:16;98890.53;;;12.57;53.79
6506;BME280;3286;49.858;8.768;2023-04-28T02:14:43;98891.00;;;12.69;53.92
6506;BME280;3286;49.858;8.768;2023-04-28T02:17:11;98893.72;;;12.84;54.60
6506;BME280;3286;49.858;8.768;2023-04-28T02:19:38;98891.34;;;12.97;54.04
6506;BME280;3286;49.858;8.768;2023-04-28T02:22:04;98892.47;;;13.03;54.17
6506;BME280;3286;49.858;8.768;2023-04-28T02:24:34;98895.38;;;12.85;54.46
6506;BME280;3286;49.858;8.768;2023-04-28T02:27:01;98906.56;;;12.64;55.20
6506;BME280;3286;49.858;8.768;2023-04-28T02:29:27;98899.94;;;12.59;55.70
6506;BME280;3286;49.858;8.768;2023-04-28T02:31:54;98900.78;;;13.00;54.48
6506;BME280;3286;49.858;8.768;2023-04-28T02:34:22;98897.09;;;12.69;55.88
6506;BME280;3286;49.858;8.768;2023-04-28T02:36:49;98899.06;;;12.75;55.65
6506;BME280;3286;49.858;8.768;2023-04-28T02:39:15;98895.75;;;12.73;55.83
6506;BME280;3286;49.858;8.768;2023-04-28T02:41:42;98902.34;;;12.86;55.68
6506;BME280;3286;49.858;8.768;2023-04-28T02:44:09;98896.50;;;12.90;56.00
6506;BME280;3286;49.858;8.768;2023-04-28T02:46:35;98898.50;;;12.88;56.48
6506;BME280;3286;49.858;8.768;2023-04-28T02:49:02;98896.66;;;12.97;56.10
6506;BME280;3286;49.858;8.768;2023-04-28T02:51:30;98892.09;;;13.14;55.57
6506;BME280;3286;49.858;8.768;2023-04-28T02:53:57;98883.09;;;13.24;55.54
6506;BME280;3286;49.858;8.768;2023-04-28T02:56:23;98880.06;;;13.03;55.78
6506;BME280;3286;49.858;8.768;2023-04-28T02:58:50;98871.59;;;12.68;57.28
6506;BME280;3286;49.858;8.768;2023-04-28T03:01:17;98873.25;;;13.01;56.11
6506;BME280;3286;49.858;8.768;2023-04-28T03:03:43;98873.09;;;13.02;56.46
6506;BME280;3286;49.858;8.768;2023-04-28T03:06:10;98877.69;;;12.29;58.94
6506;BME280;3286;49.858;8.768;2023-04-28T03:08:38;98869.69;;;12.54;58.41
6506;BME280;3286;49.858;8.768;2023-04-28T03:11:05;98872.03;;;12.49;58.09
6506;BME280;3286;49.858;8.768;2023-04-28T03:13:31;98869.19;;;12.50;57.94
6506;BME280;3286;49.858;8.768;2023-04-28T03:15:58;98865.16;;;12.63;56.32
6506;BME280;3286;49.858;8.768;2023-04-28T03:18:24;98868.84;;;12.53;55.79
6506;BME280;3286;49.858;8.768;2023-04-28T03:20:51;98860.25;;;12.91;54.75
6506;BME280;3286;49.858;8.768;2023-04-28T03:23:18;98861.00;;;13.00;54.11
6506;BME280;3286;49.858;8.768;2023-04-28T03:25:46;98859.88;;;12.94;54.78
6506;BME280;3286;49.858;8.768;2023-04-28T03:28:12;98855.72;;;13.55;53.86
6506;BME280;3286;49.858;8.768;2023-04-28T03:30:39;98866.75;;;12.80;56.02
6506;BME280;3286;49.858;8.768;2023-04-28T03:33:05;98856.75;;;12.90;55.95
6506;BME280;3286;49.858;8.768;2023-04-28T03:35:32;98853.88;;;13.00;56.27
6506;BME280;3286;49.858;8.768;2023-04-28T03:37:59;98858.88;;;12.95;56.36
6506;BME280;3286;49.858;8.768;2023-04-28T03:40:25;98852.69;;;13.03;56.22
6506;BME280;3286;49.858;8.768;2023-04-28T03:42:53;98858.25;;;12.85;57.64
6506;BME280;3286;49.858;8.768;2023-04-28T03:45:20;98849.72;;;13.06;56.97
6506;BME280;3286;49.858;8.768;2023-04-28T03:47:47;98841.09;;;13.04;56.79
6506;BME280;3286;49.858;8.768;2023-04-28T03:50:13;98838.63;;;13.02;57.45
6506;BME280;3286;49.858;8.768;2023-04-28T03:52:40;98833.03;;;12.97;57.64
6506;BME280;3286;49.858;8.768;2023-04-28T03:55:07;98831.75;;;13.16;56.92
6506;BME280;3286;49.858;8.768;2023-04-28T03:57:34;98829.38;;;13.22;56.90
6506;BME280;3286;49.858;8.768;2023-04-28T04:00:02;98830.03;;;13.24;57.42
6506;BME280;3286;49.858;8.768;2023-04-28T04:02:29;98831.97;;;13.07;57.89
6506;BME280;3286;49.858;8.768;2023-04-28T04:04:56;98831.97;;;13.30;57.24
6506;BME280;3286;49.858;8.768;2023-04-28T04:07:22;98837.84;;;11.97;61.31
6506;BME280;3286;49.858;8.768;2023-04-28T04:09:49;98826.44;;;12.13;60.77
6506;BME280;3286;49.858;8.768;2023-04-28T04:12:16;98813.31;;;12.20;60.92
6506;BME280;3286;49.858;8.768;2023-04-28T04:14:42;98810.78;;;12.35;60.51
6506;BME280;3286;49.858;8.768;2023-04-28T04:17:10;98817.38;;;12.48;60.22
6506;BME280;3286;49.858;8.768;2023-04-28T04:19:37;98815.38;;;11.02;65.51
6506;BME280;3286;49.858;8.768;2023-04-28T04:22:04;98806.28;;;11.79;62.97
6506;BME280;3286;49.858;8.768;2023-04-28T04:24:30;98808.75;;;12.54;60.33
6506;BME280;3286;49.858;8.768;2023-04-28T04:26:57;98793.50;;;12.56;60.41
6506;BME280;3286;49.858;8.768;2023-04-28T04:29:24;98787.09;;;12.73;59.95
6506;BME280;3286;49.858;8.768;2023-04-28T04:31:50;98786.81;;;13.15;58.83
6506;BME280;3286;49.858;8.768;2023-04-28T04:34:18;98782.09;;;13.02;59.26
6506;BME280;3286;49.858;8.768;2023-04-28T04:36:45;98798.16;;;13.09;58.72
6506;BME280;3286;49.858;8.768;2023-04-28T04:39:11;98793.88;;;12.76;59.23
6506;BME280;3286;49.858;8.768;2023-04-28T04:41:38;98786.44;;;13.26;58.17
6506;BME280;3286;49.858;8.768;2023-04-28T04:44:05;98787.88;;;13.52;57.60
6506;BME280;3286;49.858;8.768;2023-04-28T04:46:32;98796.78;;;13.13;58.65
6506;BME280;3286;49.858;8.768;2023-04-28T04:48:59;98788.03;;;13.12;58.75
6506;BME280;3286;49.858;8.768;2023-04-28T04:51:27;98793.72;;;13.24;58.59
6506;BME280;3286;49.858;8.768;2023-04-28T04:53:54;98789.47;;;13.15;59.03
6506;BME280;3286;49.858;8.768;2023-04-28T04:56:20;98777.94;;;13.08;58.96
6506;BME280;3286;49.858;8.768;2023-04-28T04:58:47;98780.59;;;13.08;58.72
6506;BME280;3286;49.858;8.768;2023-04-28T05:01:14;98778.28;;;13.51;56.86
6506;BME280;3286;49.858;8.768;2023-04-28T05:03:40;98773.84;;;13.67;55.76
6506;BME280;3286;49.858;8.768;2023-04-28T05:06:07;98770.69;;;13.63;55.88
6506;BME280;3286;49.858;8.768;2023-04-28T05:08:35;98772.75;;;12.91;57.97
6506;BME280;3286;49.858;8.768;2023-04-28T05:11:01;98785.09;;;12.99;58.27
6506;BME280;3286;49.858;8.768;2023-04-28T05:13:29;98784.16;;;13.15;58.19
6506;BME280;3286;49.858;8.768;2023-04-28T05:15:55;98776.47;;;13.28;57.55
6506;BME280;3286;49.858;8.768;2023-04-28T05:18:22;98790.53;;;13.52;57.40
6506;BME280;3286;49.858;8.768;2023-04-28T05:20:48;98788.78;;;13.44;57.40
6506;BME280;3286;49.858;8.768;2023-04-28T05:23:15;98795.44;;;13.17;58.64
6506;BME280;3286;49.858;8.768;2023-04-28T05:25:43;98798.91;;;13.41;58.21
6506;BME280;3286;49.858;8.768;2023-04-28T05:28:10;98793.41;;;13.19;58.73
6506;BME280;3286;49.858;8.768;2023-04-28T05:30:37;98794.56;;;13.48;57.97
6506;BME280;3286;49.858;8.768;2023-04-28T05:33:03;98804.16;;;13.49;58.59
6506;BME280;3286;49.858;8.768;2023-04-28T05:35:30;98815.19;;;12.51;62.36
6506;BME280;3286;49.858;8.768;2023-04-28T05:37:57;98810.38;;;11.98;63.69
6506;BME280;3286;49.858;8.768;2023-04-28T05:40:23;98814.34;;;12.90;61.16
6506;BME280;3286;49.858;8.768;2023-04-28T05:42:52;98823.78;;;13.16;60.34
6506;BME280;3286;49.858;8.768;2023-04-28T05:45:18;98817.84;;;13.14;60.20
6506;BME280;3286;49.858;8.768;2023-04-28T05:47:45;98821.84;;;13.57;58.65
6506;BME280;3286;49.858;8.768;2023-04-28T05:50:12;98818.44;;;13.48;58.42
6506;BME280;3286;49.858;8.768;2023-04-28T05:52:39;98813.41;;;13.30;58.76
6506;BME280;3286;49.858;8.768;2023-04-28T05:55:06;98813.81;;;13.42;58.45
6506;BME280;3286;49.858;8.768;2023-04-28T05:57:32;98824.03;;;13.30;59.24
6506;BME280;3286;49.858;8.768;2023-04-28T06:00:01;98832.47;;;13.33;59.88
6506;BME280;3286;49.858;8.768;2023-04-28T06:02:28;98830.56;;;13.66;58.76
6506;BME280;3286;49.858;8.768;2023-04-28T06:04:55;98834.47;;;13.55;59.10
6506;BME280;3286;49.858;8.768;2023-04-28T06:07:22;98839.41;;;13.35;60.16
6506;BME280;3286;49.858;8.768;2023-04-28T06:09:48;98839.63;;;13.71;58.79
6506;BME280;3286;49.858;8.768;2023-04-28T06:12:15;98840.19;;;13.67;58.05
6506;BME280;3286;49.858;8.768;2023-04-28T06:14:42;98836.72;;;13.43;59.00
6506;BME280;3286;49.858;8.768;2023-04-28T06:17:10;98848.06;;;13.75;59.75
6506;BME280;3286;49.858;8.768;2023-04-28T06:19:37;98836.16;;;13.86;57.70
6506;BME280;3286;49.858;8.768;2023-04-28T06:22:03;98835.72;;;13.82;58.31
6506;BME280;3286;49.858;8.768;2023-04-28T06:24:30;98816.41;;;13.88;57.11
6506;BME280;3286;49.858;8.768;2023-04-28T06:26:57;98817.91;;;13.53;57.88
6506;BME280;3286;49.858;8.768;2023-04-28T06:29:24;98821.78;;;12.95;59.94
6506;BME280;3286;49.858;8.768;2023-04-28T06:31:52;98833.75;;;13.14;59.51
6506;BME280;3286;49.858;8.768;2023-04-28T06:34:23;98831.81;;;13.31;58.68
6506;BME280;3286;49.858;8.768;2023-04-28T06:36:51;98834.75;;;13.37;59.15
6506;BME280;3286;49.858;8.768;2023-04-28T06:39:18;98841.09;;;13.04;60.15
6506;BME280;3286;49.858;8.768;2023-04-28T06:41:44;98828.09;;;13.64;58.78
6506;BME280;3286;49.858;8.768;2023-04-28T06:44:11;98819.34;;;13.94;57.88
6506;BME280;3286;49.858;8.768;2023-04-28T06:46:38;98830.53;;;13.51;58.41
6506;BME280;3286;49.858;8.768;2023-04-28T06:49:05;98838.34;;;12.97;60.51
6506;BME280;3286;49.858;8.768;2023-04-28T06:51:33;98835.03;;;13.18;60.32
6506;BME280;3286;49.858;8.768;2023-04-28T06:53:59;98840.41;;;13.33;59.75
6506;BME280;3286;49.858;8.768;2023-04-28T06:56:26;98839.56;;;13.33;59.60
6506;BME280;3286;49.858;8.768;2023-04-28T06:58:54;98841.66;;;13.23;59.46
6506;BME280;3286;49.858;8.768;2023-04-28T07:01:21;98841.91;;;12.81;61.45
6506;BME280;3286;49.858;8.768;2023-04-28T07:03:48;98835.56;;;13.14;60.82
6506;BME280;3286;49.858;8.768;2023-04-28T07:06:14;98829.09;;;13.16;60.70
6506;BME280;3286;49.858;8.768;2023-04-28T07:08:42;98823.38;;;13.28;60.25
6506;BME280;3286;49.858;8.768;2023-04-28T07:11:09;98816.53;;;13.33;60.45
6506;BME280;3286;49.858;8.768;2023-04-28T07:13:36;98827.97;;;13.34;60.39
6506;BME280;3286;49.858;8.768;2023-04-28T07:16:03;98819.97;;;13.42;60.35
6506;BME280;3286;49.858;8.768;2023-04-28T07:18:30;98815.97;;;14.15;58.26
6506;BME280;3286;49.858;8.768;2023-04-28T07:20:56;98828.16;;;13.56;59.67
6506;BME280;3286;49.858;8.768;2023-04-28T07:23:23;98826.88;;;13.52;60.59
6506;BME280;3286;49.858;8.768;2023-04-28T07:25:51;98825.72;;;13.23;61.37
6506;BME280;3286;49.858;8.768;2023-04-28T07:28:17;98825.69;;;13.54;60.04
6506;BME280;3286;49.858;8.768;2023-04-28T07:30:44;98833.84;;;13.53;60.22
6506;BME280;3286;49.858;8.768;2023-04-28T07:33:11;98822.56;;;13.27;60.86
6506;BME280;3286;49.858;8.768;2023-04-28T07:35:37;98814.69;;;13.96;58.94
6506;BME280;3286;49.858;8.768;2023-04-28T07:38:05;98814.00;;;13.79;59.68
6506;BME280;3286;49.858;8.768;2023-04-28T07:40:31;98809.91;;;14.06;58.99
6506;BME280;3286;49.858;8.768;2023-04-28T07:42:59;98806.97;;;13.71;59.76
6506;BME280;3286;49.858;8.768;2023-04-28T07:45:26;98814.66;;;13.42;60.45
6506;BME280;3286;49.858;8.768;2023-04-28T07:47:52;98808.69;;;13.79;60.12
6506;BME280;3286;49.858;8.768;2023-04-28T07:50:19;98801.19;;;13.67;60.65
6506;BME280;3286;49.858;8.768;2023-04-28T07:52:46;98790.09;;;13.64;60.83
6506;BME280;3286;49.858;8.768;2023-04-28T07:55:12;98795.00;;;12.82;63.13
6506;BME280;3286;49.858;8.768;2023-04-28T07:57:39;98790.66;;;13.36;61.76
6506;BME280;3286;49.858;8.768;2023-04-28T08:00:08;98800.47;;;13.88;59.41
6506;BME280;3286;49.858;8.768;2023-04-28T08:02:36;98808.84;;;14.15;58.69
6506;BME280;3286;49.858;8.768;2023-04-28T08:05:02;98792.63;;;14.10;59.15
6506;BME280;3286;49.858;8.768;2023-04-28T08:07:31;98784.34;;;13.60;60.14
6506;BME280;3286;49.858;8.768;2023-04-28T08:09:57;98783.88;;;13.71;59.14
6506;BME280;3286;49.858;8.768;2023-04-28T08:12:25;98796.66;;;13.91;59.64
6506;BME280;3286;49.858;8.768;2023-04-28T08:14:52;98800.78;;;14.09;59.38
6506;BME280;3286;49.858;8.768;2023-04-28T08:17:20;98801.25;;;14.12;58.69
6506;BME280;3286;49.858;8.768;2023-04-28T08:19:46;98800.94;;;14.07;58.33
6506;BME280;3286;49.858;8.768;2023-04-28T08:22:13;98809.91;;;14.51;57.66
6506;BME280;3286;49.858;8.768;2023-04-28T08:24:40;98814.44;;;14.20;58.03
6506;BME280;3286;49.858;8.768;2023-04-28T08:27:06;98809.13;;;14.20;59.15
6506;BME280;3286;49.858;8.768;2023-04-28T08:29:33;98799.41;;;14.13;59.46
6506;BME280;3286;49.858;8.768;2023-04-28T08:32:00;98800.50;;;14.33;58.58
6506;BME280;3286;49.858;8.768;2023-04-28T08:34:28;98804.88;;;14.41;58.71
6506;BME280;3286;49.858;8.768;2023-04-28T08:36:54;98807.25;;;14.36;58.97
6506;BME280;3286;49.858;8.768;2023-04-28T08:39:21;98804.69;;;14.43;58.89
6506;BME280;3286;49.858;8.768;2023-04-28T08:41:48;98798.38;;;14.44;58.60
6506;BME280;3286;49.858;8.768;2023-04-28T08:44:14;98795.75;;;14.66;58.35
6506;BME280;3286;49.858;8.768;2023-04-28T08:46:42;98804.69;;;14.43;58.79
6506;BME280;3286;49.858;8.768;2023-04-28T08:49:13;98810.09;;;14.49;58.64
6506;BME280;3286;49.858;8.768;2023-04-28T08:51:48;98814.16;;;14.97;57.80
6506;BME280;3286;49.858;8.768;2023-04-28T08:54:16;98817.69;;;15.04;57.89
6506;BME280;3286;49.858;8.768;2023-04-28T08:56:45;98819.84;;;14.94;57.97
6506;BME280;3286;49.858;8.768;2023-04-28T08:59:11;98819.94;;;14.86;58.25
6506;BME280;3286;49.858;8.768;2023-04-28T09:01:38;98822.97;;;14.83;57.74
6506;BME280;3286;49.858;8.768;2023-04-28T09:04:05;98815.16;;;14.96;58.38
6506;BME280;3286;49.858;8.768;2023-04-28T09:06:34;98811.38;;;15.05;56.98
6506;BME280;3286;49.858;8.768;2023-04-28T09:09:22;98813.16;;;15.70;56.56
6506;BME280;3286;49.858;8.768;2023-04-28T09:11:51;98807.69;;;15.28;57.77
6506;BME280;3286;49.858;8.768;2023-04-28T09:14:18;98805.88;;;15.86;56.69
6506;BME280;3286;49.858;8.768;2023-04-28T09:16:44;98806.56;;;16.23;56.02
6506;BME280;3286;49.858;8.768;2023-04-28T09:19:11;98817.41;;;16.63;54.70
6506;BME280;3286;49.858;8.768;2023-04-28T09:21:45;98817.28;;;16.85;54.26
6506;BME280;3286;49.858;8.768;2023-04-28T09:24:26;98812.38;;;16.33;54.89
6506;BME280;3286;49.858;8.768;2023-04-28T09:26:53;98810.25;;;16.22;55.25
6506;BME280;3286;49.858;8.768;2023-04-28T09:29:20;98809.09;;;16.03;55.71
6506;BME280;3286;49.858;8.768;2023-04-28T09:31:47;98817.09;;;16.03;56.15
6506;BME280;3286;49.858;8.768;2023-04-28T09:34:13;98818.50;;;16.34;55.38
6506;BME280;3286;49.858;8.768;2023-04-28T09:36:40;98820.75;;;15.95;56.82
6506;BME280;3286;49.858;8.768;2023-04-28T09:39:06;98825.44;;;15.93;56.46
6506;BME280;3286;49.858;8.768;2023-04-28T09:41:39;98817.06;;;15.96;57.23
6506;BME280;3286;49.858;8.768;2023-04-28T09:44:09;98815.72;;;16.14;56.82
6506;BME280;3286;49.858;8.768;2023-04-28T09:46:36;98819.41;;;16.13;56.99
6506;BME280;3286;49.858;8.768;2023-04-28T09:49:03;98821.38;;;15.75;57.83
6506;BME280;3286;49.858;8.768;2023-04-28T09:51:30;98824.19;;;15.67;58.29
6506;BME280;3286;49.858;8.768;2023-04-28T09:53:59;98818.34;;;15.78;57.97
6506;BME280;3286;49.858;8.768;2023-04-28T09:56:26;98825.28;;;15.73;58.19
6506;BME280;3286;49.858;8.768;2023-04-28T09:58:59;98816.94;;;15.83;58.22
6506;BME280;3286;49.858;8.768;2023-04-28T10:01:27;98821.44;;;15.82;58.79
6506;BME280;3286;49.858;8.768;2023-04-28T10:03:59;98826.88;;;15.96;58.52
6506;BME280;3286;49.858;8.768;2023-04-28T10:06:26;98824.44;;;15.94;58.96
6506;BME280;3286;49.858;8.768;2023-04-28T10:08:54;98826.00;;;16.17;58.47
6506;BME280;3286;49.858;8.768;2023-04-28T10:11:22;98821.16;;;15.92;59.56
6506;BME280;3286;49.858;8.768;2023-04-28T10:13:50;98827.34;;;15.99;59.64
6506;BME280;3286;49.858;8.768;2023-04-28T10:16:19;98818.22;;;16.15;59.79
6506;BME280;3286;49.858;8.768;2023-04-28T10:18:48;98823.72;;;16.49;59.32
6506;BME280;3286;49.858;8.768;2023-04-28T10:21:17;98818.00;;;16.17;61.04
6506;BME280;3286;49.858;8.768;2023-04-28T10:24:08;98808.94;;;17.02;58.38
6506;BME280;3286;49.858;8.768;2023-04-28T10:29:38;98808.47;;;16.01;62.07
6506;BME280;3286;49.858;8.768;2023-04-28T10:32:20;98801.94;;;16.94;59.62
6506;BME280;3286;49.858;8.768;2023-04-28T10:34:47;98803.72;;;16.87;59.52
6506;BME280;3286;49.858;8.768;2023-04-28T10:37:14;98808.34;;;17.33;58.16
6506;BME280;3286;49.858;8.768;2023-04-28T10:42:53;98808.31;;;16.09;62.69
6506;BME280;3286;49.858;8.768;2023-04-28T10:45:58;98815.75;;;16.62;60.63
6506;BME280;3286;49.858;8.768;2023-04-28T10:51:29;98811.03;;;17.40;59.56
6506;BME280;3286;49.858;8.768;2023-04-28T10:54:15;98799.75;;;17.65;58.57
6506;BME280;3286;49.858;8.768;2023-04-28T10:57:19;98792.16;;;17.55;58.95
6506;BME280;3286;49.858;8.768;2023-04-28T10:59:47;98789.63;;;17.94;57.72
6506;BME280;3286;49.858;8.768;2023-04-28T11:02:47;98796.91;;;16.15;63.36
6506;BME280;3286;49.858;8.768;2023-04-28T11:05:17;98789.78;;;16.91;60.16
6506;BME280;3286;49.858;8.768;2023-04-28T11:11:23;98794.81;;;17.55;58.37
6506;BME280;3286;49.858;8.768;2023-04-28T11:13:50;98790.50;;;17.81;57.63
6506;BME280;3286;49.858;8.768;2023-04-28T11:16:20;98793.13;;;17.88;57.91
6506;BME280;3286;49.858;8.768;2023-04-28T11:18:52;98793.56;;;17.91;58.66
6506;BME280;3286;49.858;8.768;2023-04-28T11:21:20;98797.78;;;18.33;57.00
6506;BME280;3286;49.858;8.768;2023-04-28T11:23:47;98805.97;;;16.76;61.45
6506;BME280;3286;49.858;8.768;2023-04-28T11:26:14;98806.09;;;16.61;62.04
6506;BME280;3286;49.858;8.768;2023-04-28T11:28:51;98806.66;;;16.99;60.79
6506;BME280;3286;49.858;8.768;2023-04-28T11:31:18;98813.84;;;15.79;64.00
6506;BME280;3286;49.858;8.768;2023-04-28T11:33:53;98801.34;;;17.05;60.81
6506;BME280;3286;49.858;8.768;2023-04-28T11:36:26;98797.91;;;17.79;58.95
6506;BME280;3286;49.858;8.768;2023-04-28T11:38:54;98787.16;;;18.13;57.89
6506;BME280;3286;49.858;8.768;2023-04-28T11:41:21;98797.72;;;18.53;56.61
6506;BME280;3286;49.858;8.768;2023-04-28T11:43:50;98786.16;;;18.66;56.33
6506;BME280;3286;49.858;8.768;2023-04-28T11:46:18;98792.34;;;19.05;55.01
6506;BME280;3286;49.858;8.768;2023-04-28T11:48:45;98801.22;;;18.92;55.39
6506;BME280;3286;49.858;8.768;2023-04-28T11:51:32;98795.91;;;18.86;55.36
6506;BME280;3286;49.858;8.768;2023-04-28T11:53:59;98805.47;;;18.68;55.85
6506;BME280;3286;49.858;8.768;2023-04-28T11:56:27;98796.41;;;18.23;57.09
6506;BME280;3286;49.858;8.768;2023-04-28T11:59:03;98782.66;;;18.06;57.73
6506;BME280;3286;49.858;8.768;2023-04-28T12:01:31;98797.06;;;17.78;58.21
6506;BME280;3286;49.858;8.768;2023-04-28T12:03:58;98802.63;;;17.50;58.57
6506;BME280;3286;49.858;8.768;2023-04-28T12:06:25;98814.06;;;17.10;60.58
6506;BME280;3286;49.858;8.768;2023-04-28T12:08:52;98811.66;;;17.35;59.57
6506;BME280;3286;49.858;8.768;2023-04-28T12:11:19;98816.19;;;17.42;59.89
6506;BME280;3286;49.858;8.768;2023-04-28T12:14:04;98817.81;;;16.60;61.73
6506;BME280;3286;49.858;8.768;2023-04-28T12:16:39;98812.09;;;16.70;62.91
6506;BME280;3286;49.858;8.768;2023-04-28T12:19:08;98801.19;;;17.34;61.31
6506;BME280;3286;49.858;8.768;2023-04-28T12:21:35;98795.38;;;17.98;59.20
6506;BME280;3286;49.858;8.768;2023-04-28T12:24:13;98782.44;;;18.67;57.40
6506;BME280;3286;49.858;8.768;2023-04-28T12:26:39;98773.09;;;18.83;57.17
6506;BME280;3286;49.858;8.768;2023-04-28T12:29:08;98773.53;;;19.12;56.29
6506;BME280;3286;49.858;8.768;2023-04-28T12:31:47;98780.44;;;19.27;54.72
6506;BME280;3286;49.858;8.768;2023-04-28T12:34:14;98774.66;;;19.55;54.05
6506;BME280;3286;49.858;8.768;2023-04-28T12:36:41;98781.22;;;19.34;54.39
6506;BME280;3286;49.858;8.768;2023-04-28T12:39:13;98782.31;;;18.87;55.84
6506;BME280;3286;49.858;8.768;2023-04-28T12:41:43;98773.25;;;18.88;56.87
6506;BME280;3286;49.858;8.768;2023-04-28T12:44:11;98772.09;;;19.42;55.50
6506;BME280;3286;49.858;8.768;2023-04-28T12:46:37;98769.84;;;19.64;54.95
6506;BME280;3286;49.858;8.768;2023-04-28T12:49:04;98775.06;;;19.77;53.96
6506;BME280;3286;49.858;8.768;2023-04-28T12:51:31;98763.38;;;20.16;53.68
6506;BME280;3286;49.858;8.768;2023-04-28T12:53:59;98754.16;;;20.61;53.28
6506;BME280;3286;49.858;8.768;2023-04-28T12:56:26;98743.38;;;21.22;51.70
6506;BME280;3286;49.858;8.768;2023-04-28T12:58:53;98749.81;;;21.45;51.28
6506;BME280;3286;49.858;8.768;2023-04-28T13:01:21;98759.97;;;21.54;51.15
6506;BME280;3286;49.858;8.768;2023-04-28T13:03:47;98758.44;;;21.35;50.93
6506;BME280;3286;49.858;8.768;2023-04-28T13:06:15;98765.81;;;20.85;51.95
6506;BME280;3286;49.858;8.768;2023-04-28T13:08:42;98762.59;;;21.07;51.03
6506;BME280;3286;49.858;8.768;2023-04-28T13:11:09;98759.09;;;20.76;51.47
6506;BME280;3286;49.858;8.768;2023-04-28T13:13:35;98765.00;;;19.73;53.33
6506;BME280;3286;49.858;8.768;2023-04-28T13:16:03;98763.97;;;18.98;55.50
6506;BME280;3286;49.858;8.768;2023-04-28T13:18:31;98765.75;;;20.05;53.48
6506;BME280;3286;49.858;8.768;2023-04-28T13:20:58;98770.19;;;20.30;52.40
6506;BME280;3286;49.858;8.768;2023-04-28T13:23:24;98759.84;;;20.15;52.88
6506;BME280;3286;49.858;8.768;2023-04-28T13:25:51;98763.22;;;20.60;52.10
6506;BME280;3286;49.858;8.768;2023-04-28T13:28:18;98752.47;;;20.60;51.87
6506;BME280;3286;49.858;8.768;2023-04-28T13:30:44;98740.94;;;19.91;53.52
6506;BME280;3286;49.858;8.768;2023-04-28T13:33:11;98733.13;;;19.64;54.76
6506;BME280;3286;49.858;8.768;2023-04-28T13:35:39;98736.50;;;20.34;52.66
6506;BME280;3286;49.858;8.768;2023-04-28T13:38:06;98739.84;;;20.48;51.89
6506;BME280;3286;49.858;8.768;2023-04-28T13:40:33;98738.22;;;20.47;52.03